sensor_id;sensor_type;location;lat;lon;timestamp;P1;durP1;ratioP1;P2;durP2;ratioP2
35028;SDS011;35394;54.282;10.070;2023-04-01T00:00:02;1.10;;;0.90;;
35028;SDS011;35394;54.282;10.070;2023-04-01T00:00:32;2.50;;;0.82;;
35028;SDS011;35394;54.282;10.070;2023-04-01T00:01:04;1.50;;;0.90;;
35028;SDS011;35394;54.282;10.070;2023-04-01T00:01:35;0.90;;;0.65;;
35028;SDS011;35394;54.282;10.070;2023-04-01T00:02:06;0.77;;;0.73;;
35028;SDS011;35394;54.282;10.070;2023-04-01T00:02:37;0.50;;;0.50;;
35028;SDS011;35394;54.282;10.070;2023-04-01T00:03:07;2.17;;;1.00;;
35028;SDS011;35394;54.282;10.070;2023-04-01T00:03:38;0.77;;;0.52;;
35028;SDS011;35394;54.282;10.070;2023-04-01T00:04:08;1.17;;;0.87;;
35028;SDS011;35394;54.282;10.070;2023-04-01T00:04:39;1.13;;;0.68;;
35028;SDS011;35394;54.282;10.070;2023-04-01T00:05:10;1.47;;;1.23;;
35028;SDS011;35394;54.282;10.070;2023-04-01T00:05:41;1.10;;;0.90;;
35028;SDS011;35394;54.282;10.070;2023-04-01T00:06:13;3.43;;;0.93;;
35028;SDS011;35394;54.282;10.070;2023-04-01T00:06:45;2.47;;;0.95;;
35028;SDS011;35394;54.282;10.070;2023-04-01T00:07:17;1.80;;;1.02;;
35028;SDS011;35394;54.282;10.070;2023-04-01T00:07:47;0.80;;;0.70;;
35028;SDS011;35394;54.282;10.070;2023-04-01T00:08:18;0.80;;;0.60;;
35028;SDS011;35394;54.282;10.070;2023-04-01T00:08:49;1.30;;;0.70;;
35028;SDS011;35394;54.282;10.070;2023-04-01T00:09:19;1.40;;;1.00;;
35028;SDS011;35394;54.282;10.070;2023-04-01T00:09:50;0.70;;;0.65;;
35028;SDS011;35394;54.282;10.070;2023-04-01T00:10:21;1.65;;;1.00;;
35028;SDS011;35394;54.282;10.070;2023-04-01T00:10:52;1.50;;;0.90;;
35028;SDS011;35394;54.282;10.070;2023-04-01T00:11:23;1.55;;;0.90;;
35028;SDS011;35394;54.282;10.070;2023-04-01T00:11:53;1.50;;;1.07;;
35028;SDS011;35394;54.282;10.070;2023-04-01T00:12:24;1.40;;;0.93;;
35028;SDS011;35394;54.282;10.070;2023-04-01T00:12:55;0.70;;;0.60;;
35028;SDS011;35394;54.282;10.070;2023-04-01T00:13:25;1.57;;;1.40;;
35028;SDS011;35394;54.282;10.070;2023-04-01T00:13:56;0.60;;;0.45;;
35028;SDS011;35394;54.282;10.070;2023-04-01T00:14:26;1.60;;;1.20;;
35028;SDS011;35394;54.282;10.070;2023-04-01T00:14:58;1.42;;;0.52;;
35028;SDS011;35394;54.282;10.070;2023-04-01T00:15:29;0.28;;;0.28;;
35028;SDS011;35394;54.282;10.070;2023-04-01T00:16:00;1.20;;;0.70;;
35028;SDS011;35394;54.282;10.070;2023-04-01T00:16:31;0.63;;;0.63;;
35028;SDS011;35394;54.282;10.070;2023-04-01T00:17:02;0.80;;;0.70;;
35028;SDS011;35394;54.282;10.070;2023-04-01T00:17:33;0.60;;;0.47;;
35028;SDS011;35394;54.282;10.070;2023-04-01T00:18:04;1.38;;;1.05;;
35028;SDS011;35394;54.282;10.070;2023-04-01T00:18:35;1.63;;;1.23;;
35028;SDS011;35394;54.282;10.070;2023-04-01T00:19:06;1.20;;;0.93;;
35028;SDS011;35394;54.282;10.070;2023-04-01T00:19:36;1.48;;;1.05;;
35028;SDS011;35394;54.282;10.070;2023-04-01T00:20:07;1.10;;;1.07;;
35028;SDS011;35394;54.282;10.070;2023-04-01T00:20:42;2.10;;;0.88;;
35028;SDS011;35394;54.282;10.070;2023-04-01T00:21:14;2.13;;;1.08;;
35028;SDS011;35394;54.282;10.070;2023-04-01T00:21:45;0.67;;;0.63;;
35028;SDS011;35394;54.282;10.070;2023-04-01T00:22:16;1.60;;;1.00;;
35028;SDS011;35394;54.282;10.070;2023-04-01T00:22:47;1.23;;;0.90;;
35028;SDS011;35394;54.282;10.070;2023-04-01T00:23:17;0.80;;;0.65;;
35028;SDS011;35394;54.282;10.070;2023-04-01T00:23:49;0.73;;;0.50;;
35028;SDS011;35394;54.282;10.070;2023-04-01T00:24:20;0.30;;;0.30;;
35028;SDS011;35394;54.282;10.070;2023-04-01T00:24:51;1.77;;;1.53;;
35028;SDS011;35394;54.282;10.070;2023-04-01T00:25:23;2.65;;;0.85;;
35028;SDS011;35394;54.282;10.070;2023-04-01T00:25:54;0.77;;;0.65;;
35028;SDS011;35394;54.282;10.070;2023-04-01T00:26:24;0.50;;;0.50;;
35028;SDS011;35394;54.282;10.070;2023-04-01T00:26:55;1.03;;;0.53;;
35028;SDS011;35394;54.282;10.070;2023-04-01T00:27:25;0.90;;;0.65;;
35028;SDS011;35394;54.282;10.070;2023-04-01T00:27:56;0.77;;;0.70;;
35028;SDS011;35394;54.282;10.070;2023-04-01T00:28:27;0.70;;;0.60;;
35028;SDS011;35394;54.282;10.070;2023-04-01T00:28:58;2.15;;;0.93;;
35028;SDS011;35394;54.282;10.070;2023-04-01T00:29:28;1.42;;;0.82;;
35028;SDS011;35394;54.282;10.070;2023-04-01T00:30:00;2.00;;;0.85;;
35028;SDS011;35394;54.282;10.070;2023-04-01T00:30:31;0.93;;;0.80;;
35028;SDS011;35394;54.282;10.070;2023-04-01T00:31:05;5.43;;;0.88;;
35028;SDS011;35394;54.282;10.070;2023-04-01T00:31:36;2.67;;;1.25;;
35028;SDS011;35394;54.282;10.070;2023-04-01T00:32:07;0.43;;;0.43;;
35028;SDS011;35394;54.282;10.070;2023-04-01T00:32:37;0.82;;;0.82;;
35028;SDS011;35394;54.282;10.070;2023-04-01T00:33:08;0.63;;;0.43;;
35028;SDS011;35394;54.282;10.070;2023-04-01T00:33:39;1.53;;;1.10;;
35028;SDS011;35394;54.282;10.070;2023-04-01T00:34:10;1.25;;;1.00;;
35028;SDS011;35394;54.282;10.070;2023-04-01T00:34:42;0.30;;;0.30;;
35028;SDS011;35394;54.282;10.070;2023-04-01T00:35:14;0.70;;;0.70;;
35028;SDS011;35394;54.282;10.070;2023-04-01T00:35:44;3.28;;;0.88;;
35028;SDS011;35394;54.282;10.070;2023-04-01T00:36:16;0.65;;;0.43;;
35028;SDS011;35394;54.282;10.070;2023-04-01T00:36:49;0.50;;;0.47;;
35028;SDS011;35394;54.282;10.070;2023-04-01T00:37:20;0.57;;;0.57;;
35028;SDS011;35394;54.282;10.070;2023-04-01T00:37:51;3.90;;;1.23;;
35028;SDS011;35394;54.282;10.070;2023-04-01T00:38:21;7.50;;;0.80;;
35028;SDS011;35394;54.282;10.070;2023-04-01T00:38:52;0.30;;;0.30;;
35028;SDS011;35394;54.282;10.070;2023-04-01T00:39:23;0.63;;;0.57;;
35028;SDS011;35394;54.282;10.070;2023-04-01T00:39:54;0.90;;;0.70;;
35028;SDS011;35394;54.282;10.070;2023-04-01T00:41:00;0.95;;;0.55;;
35028;SDS011;35394;54.282;10.070;2023-04-01T00:41:30;1.60;;;0.97;;
35028;SDS011;35394;54.282;10.070;2023-04-01T00:42:02;0.68;;;0.55;;
35028;SDS011;35394;54.282;10.070;2023-04-01T00:42:34;0.73;;;0.57;;
35028;SDS011;35394;54.282;10.070;2023-04-01T00:43:09;1.13;;;0.70;;
35028;SDS011;35394;54.282;10.070;2023-04-01T00:43:49;0.57;;;0.52;;
35028;SDS011;35394;54.282;10.070;2023-04-01T00:44:22;0.20;;;0.20;;
35028;SDS011;35394;54.282;10.070;2023-04-01T00:44:54;0.30;;;0.30;;
35028;SDS011;35394;54.282;10.070;2023-04-01T00:45:26;0.70;;;0.60;;
35028;SDS011;35394;54.282;10.070;2023-04-01T00:46:08;0.50;;;0.50;;
35028;SDS011;35394;54.282;10.070;2023-04-01T00:46:39;0.32;;;0.32;;
35028;SDS011;35394;54.282;10.070;2023-04-01T00:47:09;0.40;;;0.40;;
35028;SDS011;35394;54.282;10.070;2023-04-01T00:47:40;0.57;;;0.53;;
35028;SDS011;35394;54.282;10.070;2023-04-01T00:48:51;0.25;;;0.25;;
35028;SDS011;35394;54.282;10.070;2023-04-01T00:49:28;1.00;;;0.70;;
35028;SDS011;35394;54.282;10.070;2023-04-01T00:50:01;0.47;;;0.47;;
35028;SDS011;35394;54.282;10.070;2023-04-01T00:50:31;0.30;;;0.30;;
35028;SDS011;35394;54.282;10.070;2023-04-01T00:51:07;0.35;;;0.35;;
35028;SDS011;35394;54.282;10.070;2023-04-01T00:51:41;1.00;;;0.43;;
35028;SDS011;35394;54.282;10.070;2023-04-01T00:52:16;0.30;;;0.30;;
35028;SDS011;35394;54.282;10.070;2023-04-01T00:52:48;0.90;;;0.75;;
35028;SDS011;35394;54.282;10.070;2023-04-01T00:53:19;1.00;;;0.80;;
35028;SDS011;35394;54.282;10.070;2023-04-01T00:53:51;0.25;;;0.25;;
35028;SDS011;35394;54.282;10.070;2023-04-01T00:54:24;1.05;;;0.35;;
35028;SDS011;35394;54.282;10.070;2023-04-01T00:54:56;0.60;;;0.60;;
35028;SDS011;35394;54.282;10.070;2023-04-01T00:55:29;0.38;;;0.28;;
35028;SDS011;35394;54.282;10.070;2023-04-01T00:57:34;0.25;;;0.25;;
35028;SDS011;35394;54.282;10.070;2023-04-01T00:58:07;0.73;;;0.50;;
35028;SDS011;35394;54.282;10.070;2023-04-01T00:58:43;0.80;;;0.50;;
35028;SDS011;35394;54.282;10.070;2023-04-01T00:59:18;0.95;;;0.45;;
35028;SDS011;35394;54.282;10.070;2023-04-01T01:00:03;1.13;;;0.82;;
35028;SDS011;35394;54.282;10.070;2023-04-01T01:00:37;0.40;;;0.32;;
35028;SDS011;35394;54.282;10.070;2023-04-01T01:01:08;0.25;;;0.25;;
35028;SDS011;35394;54.282;10.070;2023-04-01T01:01:39;0.38;;;0.38;;
35028;SDS011;35394;54.282;10.070;2023-04-01T01:02:11;1.85;;;0.80;;
35028;SDS011;35394;54.282;10.070;2023-04-01T01:02:43;3.00;;;0.40;;
35028;SDS011;35394;54.282;10.070;2023-04-01T01:03:15;0.17;;;0.17;;
35028;SDS011;35394;54.282;10.070;2023-04-01T01:03:46;0.13;;;0.13;;
35028;SDS011;35394;54.282;10.070;2023-04-01T01:05:00;1.38;;;0.35;;
35028;SDS011;35394;54.282;10.070;2023-04-01T01:05:36;0.10;;;0.10;;
35028;SDS011;35394;54.282;10.070;2023-04-01T01:08:18;1.13;;;0.93;;
35028;SDS011;35394;54.282;10.070;2023-04-01T01:09:32;0.10;;;0.10;;
35028;SDS011;35394;54.282;10.070;2023-04-01T01:10:34;0.50;;;0.50;;
35028;SDS011;35394;54.282;10.070;2023-04-01T01:11:06;0.10;;;0.10;;
35028;SDS011;35394;54.282;10.070;2023-04-01T01:13:26;0.25;;;0.25;;
35028;SDS011;35394;54.282;10.070;2023-04-01T01:15:09;0.22;;;0.10;;
35028;SDS011;35394;54.282;10.070;2023-04-01T01:15:47;0.90;;;0.65;;
35028;SDS011;35394;54.282;10.070;2023-04-01T01:16:27;0.20;;;0.20;;
35028;SDS011;35394;54.282;10.070;2023-04-01T01:18:09;0.60;;;0.60;;
35028;SDS011;35394;54.282;10.070;2023-04-01T01:18:50;1.00;;;0.55;;
35028;SDS011;35394;54.282;10.070;2023-04-01T01:21:26;0.38;;;0.38;;
35028;SDS011;35394;54.282;10.070;2023-04-01T01:25:44;2.38;;;0.57;;
35028;SDS011;35394;54.282;10.070;2023-04-01T01:27:10;0.60;;;0.50;;
35028;SDS011;35394;54.282;10.070;2023-04-01T01:27:49;0.15;;;0.15;;
35028;SDS011;35394;54.282;10.070;2023-04-01T01:28:36;0.85;;;0.40;;
35028;SDS011;35394;54.282;10.070;2023-04-01T01:32:59;0.10;;;0.10;;
35028;SDS011;35394;54.282;10.070;2023-04-01T01:34:28;0.28;;;0.28;;
35028;SDS011;35394;54.282;10.070;2023-04-01T01:35:30;0.40;;;0.40;;
35028;SDS011;35394;54.282;10.070;2023-04-01T01:36:02;0.50;;;0.32;;
35028;SDS011;35394;54.282;10.070;2023-04-01T01:36:35;0.32;;;0.25;;
35028;SDS011;35394;54.282;10.070;2023-04-01T01:37:09;0.28;;;0.28;;
35028;SDS011;35394;54.282;10.070;2023-04-01T01:37:41;0.40;;;0.20;;
35028;SDS011;35394;54.282;10.070;2023-04-01T01:38:14;0.30;;;0.20;;
35028;SDS011;35394;54.282;10.070;2023-04-01T01:38:47;0.50;;;0.30;;
35028;SDS011;35394;54.282;10.070;2023-04-01T01:39:18;0.88;;;0.43;;
35028;SDS011;35394;54.282;10.070;2023-04-01T01:39:53;0.90;;;0.40;;
35028;SDS011;35394;54.282;10.070;2023-04-01T01:40:26;0.30;;;0.30;;
35028;SDS011;35394;54.282;10.070;2023-04-01T01:40:57;0.43;;;0.43;;
35028;SDS011;35394;54.282;10.070;2023-04-01T01:41:28;1.27;;;0.68;;
35028;SDS011;35394;54.282;10.070;2023-04-01T01:42:02;1.40;;;0.40;;
35028;SDS011;35394;54.282;10.070;2023-04-01T01:42:36;0.45;;;0.45;;
35028;SDS011;35394;54.282;10.070;2023-04-01T01:43:09;0.40;;;0.40;;
35028;SDS011;35394;54.282;10.070;2023-04-01T01:43:45;0.77;;;0.38;;
35028;SDS011;35394;54.282;10.070;2023-04-01T01:44:17;0.30;;;0.30;;
35028;SDS011;35394;54.282;10.070;2023-04-01T01:44:48;0.40;;;0.40;;
35028;SDS011;35394;54.282;10.070;2023-04-01T01:45:21;0.50;;;0.40;;
35028;SDS011;35394;54.282;10.070;2023-04-01T01:45:55;0.25;;;0.25;;
35028;SDS011;35394;54.282;10.070;2023-04-01T01:46:28;0.70;;;0.60;;
35028;SDS011;35394;54.282;10.070;2023-04-01T01:47:01;0.43;;;0.43;;
35028;SDS011;35394;54.282;10.070;2023-04-01T01:47:32;1.10;;;0.80;;
35028;SDS011;35394;54.282;10.070;2023-04-01T01:48:04;0.35;;;0.35;;
35028;SDS011;35394;54.282;10.070;2023-04-01T01:48:35;0.30;;;0.30;;
35028;SDS011;35394;54.282;10.070;2023-04-01T01:49:06;0.60;;;0.45;;
35028;SDS011;35394;54.282;10.070;2023-04-01T01:49:37;1.10;;;0.40;;
35028;SDS011;35394;54.282;10.070;2023-04-01T01:50:09;0.22;;;0.22;;
35028;SDS011;35394;54.282;10.070;2023-04-01T01:50:40;0.22;;;0.13;;
35028;SDS011;35394;54.282;10.070;2023-04-01T01:51:11;0.80;;;0.60;;
35028;SDS011;35394;54.282;10.070;2023-04-01T01:51:42;0.90;;;0.57;;
35028;SDS011;35394;54.282;10.070;2023-04-01T01:52:13;0.23;;;0.23;;
35028;SDS011;35394;54.282;10.070;2023-04-01T01:52:43;0.20;;;0.20;;
35028;SDS011;35394;54.282;10.070;2023-04-01T01:53:14;0.20;;;0.20;;
35028;SDS011;35394;54.282;10.070;2023-04-01T01:53:45;0.30;;;0.30;;
35028;SDS011;35394;54.282;10.070;2023-04-01T01:54:16;0.40;;;0.40;;
35028;SDS011;35394;54.282;10.070;2023-04-01T01:54:55;0.10;;;0.10;;
35028;SDS011;35394;54.282;10.070;2023-04-01T01:55:58;0.40;;;0.30;;
35028;SDS011;35394;54.282;10.070;2023-04-01T01:56:29;0.80;;;0.50;;
35028;SDS011;35394;54.282;10.070;2023-04-01T01:57:05;0.30;;;0.30;;
35028;SDS011;35394;54.282;10.070;2023-04-01T01:57:37;0.80;;;0.30;;
35028;SDS011;35394;54.282;10.070;2023-04-01T01:58:18;0.10;;;0.10;;
35028;SDS011;35394;54.282;10.070;2023-04-01T01:58:55;0.55;;;0.45;;
35028;SDS011;35394;54.282;10.070;2023-04-01T01:59:34;0.65;;;0.35;;
35028;SDS011;35394;54.282;10.070;2023-04-01T02:00:07;0.22;;;0.22;;
35028;SDS011;35394;54.282;10.070;2023-04-01T02:00:44;0.15;;;0.15;;
35028;SDS011;35394;54.282;10.070;2023-04-01T02:01:26;0.40;;;0.40;;
35028;SDS011;35394;54.282;10.070;2023-04-01T02:01:58;0.50;;;0.40;;
35028;SDS011;35394;54.282;10.070;2023-04-01T02:02:29;0.40;;;0.40;;
35028;SDS011;35394;54.282;10.070;2023-04-01T02:03:01;0.40;;;0.40;;
35028;SDS011;35394;54.282;10.070;2023-04-01T02:03:34;0.43;;;0.32;;
35028;SDS011;35394;54.282;10.070;2023-04-01T02:04:06;0.32;;;0.17;;
35028;SDS011;35394;54.282;10.070;2023-04-01T02:04:39;0.30;;;0.30;;
35028;SDS011;35394;54.282;10.070;2023-04-01T02:05:11;1.80;;;0.52;;
35028;SDS011;35394;54.282;10.070;2023-04-01T02:05:46;0.30;;;0.10;;
35028;SDS011;35394;54.282;10.070;2023-04-01T02:06:18;0.30;;;0.30;;
35028;SDS011;35394;54.282;10.070;2023-04-01T02:07:01;0.65;;;0.38;;
35028;SDS011;35394;54.282;10.070;2023-04-01T02:07:33;0.40;;;0.20;;
35028;SDS011;35394;54.282;10.070;2023-04-01T02:08:07;0.17;;;0.17;;
35028;SDS011;35394;54.282;10.070;2023-04-01T02:08:47;0.32;;;0.32;;
35028;SDS011;35394;54.282;10.070;2023-04-01T02:09:22;0.22;;;0.22;;
35028;SDS011;35394;54.282;10.070;2023-04-01T02:09:53;0.30;;;0.30;;
35028;SDS011;35394;54.282;10.070;2023-04-01T02:10:25;0.10;;;0.10;;
35028;SDS011;35394;54.282;10.070;2023-04-01T02:11:00;0.20;;;0.20;;
35028;SDS011;35394;54.282;10.070;2023-04-01T02:12:10;0.20;;;0.20;;
35028;SDS011;35394;54.282;10.070;2023-04-01T02:12:43;0.13;;;0.13;;
35028;SDS011;35394;54.282;10.070;2023-04-01T02:13:18;0.40;;;0.30;;
35028;SDS011;35394;54.282;10.070;2023-04-01T02:13:56;0.10;;;0.10;;
35028;SDS011;35394;54.282;10.070;2023-04-01T02:15:10;0.05;;;0.05;;
35028;SDS011;35394;54.282;10.070;2023-04-01T02:15:44;0.20;;;0.15;;
35028;SDS011;35394;54.282;10.070;2023-04-01T02:16:19;0.28;;;0.28;;
35028;SDS011;35394;54.282;10.070;2023-04-01T02:16:57;0.10;;;0.10;;
35028;SDS011;35394;54.282;10.070;2023-04-01T02:17:30;0.57;;;0.25;;
35028;SDS011;35394;54.282;10.070;2023-04-01T02:18:02;0.17;;;0.17;;
35028;SDS011;35394;54.282;10.070;2023-04-01T02:18:35;0.03;;;0.03;;
35028;SDS011;35394;54.282;10.070;2023-04-01T02:19:07;0.22;;;0.22;;
35028;SDS011;35394;54.282;10.070;2023-04-01T02:20:00;0.38;;;0.17;;
35028;SDS011;35394;54.282;10.070;2023-04-01T02:20:30;0.22;;;0.17;;
35028;SDS011;35394;54.282;10.070;2023-04-01T02:21:00;0.23;;;0.23;;
35028;SDS011;35394;54.282;10.070;2023-04-01T02:21:32;0.30;;;0.30;;
35028;SDS011;35394;54.282;10.070;2023-04-01T02:22:04;0.08;;;0.08;;
35028;SDS011;35394;54.282;10.070;2023-04-01T02:22:37;0.13;;;0.13;;
35028;SDS011;35394;54.282;10.070;2023-04-01T02:23:11;0.45;;;0.45;;
35028;SDS011;35394;54.282;10.070;2023-04-01T02:23:42;0.35;;;0.32;;
35028;SDS011;35394;54.282;10.070;2023-04-01T02:24:13;0.10;;;0.10;;
35028;SDS011;35394;54.282;10.070;2023-04-01T02:24:45;0.20;;;0.20;;
35028;SDS011;35394;54.282;10.070;2023-04-01T02:25:37;0.40;;;0.20;;
35028;SDS011;35394;54.282;10.070;2023-04-01T02:26:07;0.00;;;0.00;;
35028;SDS011;35394;54.282;10.070;2023-04-01T02:26:39;0.90;;;0.40;;
35028;SDS011;35394;54.282;10.070;2023-04-01T02:27:10;0.30;;;0.20;;
35028;SDS011;35394;54.282;10.070;2023-04-01T02:27:42;2.30;;;0.60;;
35028;SDS011;35394;54.282;10.070;2023-04-01T02:28:14;0.10;;;0.10;;
35028;SDS011;35394;54.282;10.070;2023-04-01T02:28:47;0.50;;;0.30;;
35028;SDS011;35394;54.282;10.070;2023-04-01T02:29:19;0.20;;;0.20;;
35028;SDS011;35394;54.282;10.070;2023-04-01T02:29:51;0.08;;;0.00;;
35028;SDS011;35394;54.282;10.070;2023-04-01T02:30:22;0.20;;;0.20;;
35028;SDS011;35394;54.282;10.070;2023-04-01T02:30:53;0.15;;;0.15;;
35028;SDS011;35394;54.282;10.070;2023-04-01T02:31:24;0.10;;;0.10;;
35028;SDS011;35394;54.282;10.070;2023-04-01T02:31:55;0.30;;;0.20;;
35028;SDS011;35394;54.282;10.070;2023-04-01T02:32:26;0.10;;;0.10;;
35028;SDS011;35394;54.282;10.070;2023-04-01T02:32:58;0.20;;;0.20;;
35028;SDS011;35394;54.282;10.070;2023-04-01T02:33:29;0.08;;;0.08;;
35028;SDS011;35394;54.282;10.070;2023-04-01T02:34:01;0.10;;;0.10;;
35028;SDS011;35394;54.282;10.070;2023-04-01T02:34:32;0.10;;;0.10;;
35028;SDS011;35394;54.282;10.070;2023-04-01T02:35:07;0.00;;;0.00;;
35028;SDS011;35394;54.282;10.070;2023-04-01T02:35:40;0.00;;;0.00;;
35028;SDS011;35394;54.282;10.070;2023-04-01T02:36:12;0.00;;;0.00;;
35028;SDS011;35394;54.282;10.070;2023-04-01T02:36:43;0.00;;;0.00;;
35028;SDS011;35394;54.282;10.070;2023-04-01T02:37:14;0.20;;;0.20;;
35028;SDS011;35394;54.282;10.070;2023-04-01T02:37:45;0.10;;;0.10;;
35028;SDS011;35394;54.282;10.070;2023-04-01T02:38:18;0.10;;;0.10;;
35028;SDS011;35394;54.282;10.070;2023-04-01T02:38:49;0.25;;;0.17;;
35028;SDS011;35394;54.282;10.070;2023-04-01T02:39:20;0.03;;;0.03;;
35028;SDS011;35394;54.282;10.070;2023-04-01T02:39:51;0.10;;;0.10;;
35028;SDS011;35394;54.282;10.070;2023-04-01T02:40:21;0.00;;;0.00;;
35028;SDS011;35394;54.282;10.070;2023-04-01T02:40:56;0.17;;;0.17;;
35028;SDS011;35394;54.282;10.070;2023-04-01T02:41:28;0.10;;;0.10;;
35028;SDS011;35394;54.282;10.070;2023-04-01T02:41:59;0.00;;;0.00;;
35028;SDS011;35394;54.282;10.070;2023-04-01T02:42:30;0.10;;;0.10;;
35028;SDS011;35394;54.282;10.070;2023-04-01T02:43:00;0.60;;;0.30;;
35028;SDS011;35394;54.282;10.070;2023-04-01T02:43:31;0.20;;;0.05;;
35028;SDS011;35394;54.282;10.070;2023-04-01T02:44:02;0.30;;;0.20;;
35028;SDS011;35394;54.282;10.070;2023-04-01T02:44:33;0.00;;;0.00;;
35028;SDS011;35394;54.282;10.070;2023-04-01T02:45:04;0.10;;;0.10;;
35028;SDS011;35394;54.282;10.070;2023-04-01T02:45:35;0.00;;;0.00;;
35028;SDS011;35394;54.282;10.070;2023-04-01T02:46:06;0.00;;;0.00;;
35028;SDS011;35394;54.282;10.070;2023-04-01T02:46:36;0.20;;;0.10;;
35028;SDS011;35394;54.282;10.070;2023-04-01T02:47:07;0.10;;;0.10;;
35028;SDS011;35394;54.282;10.070;2023-04-01T02:47:38;0.00;;;0.00;;
35028;SDS011;35394;54.282;10.070;2023-04-01T02:48:08;0.20;;;0.20;;
35028;SDS011;35394;54.282;10.070;2023-04-01T02:48:39;0.10;;;0.00;;
35028;SDS011;35394;54.282;10.070;2023-04-01T02:49:10;0.00;;;0.00;;
35028;SDS011;35394;54.282;10.070;2023-04-01T02:49:40;0.00;;;0.00;;
35028;SDS011;35394;54.282;10.070;2023-04-01T02:50:11;0.30;;;0.10;;
35028;SDS011;35394;54.282;10.070;2023-04-01T02:50:42;0.00;;;0.00;;
35028;SDS011;35394;54.282;10.070;2023-04-01T02:51:12;0.10;;;0.10;;
35028;SDS011;35394;54.282;10.070;2023-04-01T02:51:43;0.00;;;0.00;;
35028;SDS011;35394;54.282;10.070;2023-04-01T02:52:14;0.00;;;0.00;;
35028;SDS011;35394;54.282;10.070;2023-04-01T02:52:44;0.50;;;0.10;;
35028;SDS011;35394;54.282;10.070;2023-04-01T02:53:15;0.20;;;0.20;;
35028;SDS011;35394;54.282;10.070;2023-04-01T02:53:46;0.50;;;0.10;;
35028;SDS011;35394;54.282;10.070;2023-04-01T02:54:17;0.20;;;0.20;;
35028;SDS011;35394;54.282;10.070;2023-04-01T02:54:48;0.00;;;0.00;;
35028;SDS011;35394;54.282;10.070;2023-04-01T02:55:19;0.00;;;0.00;;
35028;SDS011;35394;54.282;10.070;2023-04-01T02:55:49;1.90;;;0.80;;
35028;SDS011;35394;54.282;10.070;2023-04-01T02:56:21;0.17;;;0.17;;
35028;SDS011;35394;54.282;10.070;2023-04-01T02:56:52;0.80;;;0.30;;
35028;SDS011;35394;54.282;10.070;2023-04-01T02:57:23;0.00;;;0.00;;
35028;SDS011;35394;54.282;10.070;2023-04-01T02:57:54;0.00;;;0.00;;
35028;SDS011;35394;54.282;10.070;2023-04-01T02:58:25;0.10;;;0.10;;
35028;SDS011;35394;54.282;10.070;2023-04-01T02:58:55;0.10;;;0.00;;
35028;SDS011;35394;54.282;10.070;2023-04-01T02:59:26;0.30;;;0.30;;
35028;SDS011;35394;54.282;10.070;2023-04-01T02:59:56;0.10;;;0.10;;
35028;SDS011;35394;54.282;10.070;2023-04-01T03:00:27;0.00;;;0.00;;
35028;SDS011;35394;54.282;10.070;2023-04-01T03:00:58;0.00;;;0.00;;
35028;SDS011;35394;54.282;10.070;2023-04-01T03:01:28;0.07;;;0.07;;
35028;SDS011;35394;54.282;10.070;2023-04-01T03:01:59;0.03;;;0.03;;
35028;SDS011;35394;54.282;10.070;2023-04-01T03:02:30;0.45;;;0.20;;
35028;SDS011;35394;54.282;10.070;2023-04-01T03:03:00;0.00;;;0.00;;
35028;SDS011;35394;54.282;10.070;2023-04-01T03:03:32;0.00;;;0.00;;
35028;SDS011;35394;54.282;10.070;2023-04-01T03:04:03;0.00;;;0.00;;
35028;SDS011;35394;54.282;10.070;2023-04-01T03:04:33;0.00;;;0.00;;
35028;SDS011;35394;54.282;10.070;2023-04-01T03:05:04;0.00;;;0.00;;
35028;SDS011;35394;54.282;10.070;2023-04-01T03:05:35;0.00;;;0.00;;
35028;SDS011;35394;54.282;10.070;2023-04-01T03:06:07;0.07;;;0.07;;
35028;SDS011;35394;54.282;10.070;2023-04-01T03:06:39;0.00;;;0.00;;
35028;SDS011;35394;54.282;10.070;2023-04-01T03:07:10;0.20;;;0.20;;
35028;SDS011;35394;54.282;10.070;2023-04-01T03:07:40;0.30;;;0.20;;
35028;SDS011;35394;54.282;10.070;2023-04-01T03:08:11;0.20;;;0.10;;
35028;SDS011;35394;54.282;10.070;2023-04-01T03:08:42;0.00;;;0.00;;
35028;SDS011;35394;54.282;10.070;2023-04-01T03:09:12;0.00;;;0.00;;
35028;SDS011;35394;54.282;10.070;2023-04-01T03:09:44;0.10;;;0.10;;
35028;SDS011;35394;54.282;10.070;2023-04-01T03:10:15;0.00;;;0.00;;
35028;SDS011;35394;54.282;10.070;2023-04-01T03:10:45;0.00;;;0.00;;
35028;SDS011;35394;54.282;10.070;2023-04-01T03:11:16;0.08;;;0.08;;
35028;SDS011;35394;54.282;10.070;2023-04-01T03:11:46;0.00;;;0.00;;
35028;SDS011;35394;54.282;10.070;2023-04-01T03:12:17;0.00;;;0.00;;
35028;SDS011;35394;54.282;10.070;2023-04-01T03:12:48;0.10;;;0.10;;
35028;SDS011;35394;54.282;10.070;2023-04-01T03:13:18;0.00;;;0.00;;
35028;SDS011;35394;54.282;10.070;2023-04-01T03:13:49;0.00;;;0.00;;
35028;SDS011;35394;54.282;10.070;2023-04-01T03:14:19;0.10;;;0.10;;
35028;SDS011;35394;54.282;10.070;2023-04-01T03:14:50;0.05;;;0.05;;
35028;SDS011;35394;54.282;10.070;2023-04-01T03:15:21;0.00;;;0.00;;
35028;SDS011;35394;54.282;10.070;2023-04-01T03:15:51;0.00;;;0.00;;
35028;SDS011;35394;54.282;10.070;2023-04-01T03:16:23;0.00;;;0.00;;
35028;SDS011;35394;54.282;10.070;2023-04-01T03:16:54;0.00;;;0.00;;
35028;SDS011;35394;54.282;10.070;2023-04-01T03:17:24;0.20;;;0.10;;
35028;SDS011;35394;54.282;10.070;2023-04-01T03:17:55;0.10;;;0.10;;
35028;SDS011;35394;54.282;10.070;2023-04-01T03:18:26;0.10;;;0.00;;
35028;SDS011;35394;54.282;10.070;2023-04-01T03:18:56;0.10;;;0.10;;
35028;SDS011;35394;54.282;10.070;2023-04-01T03:19:29;0.00;;;0.00;;
35028;SDS011;35394;54.282;10.070;2023-04-01T03:20:00;0.00;;;0.00;;
35028;SDS011;35394;54.282;10.070;2023-04-01T03:20:30;0.00;;;0.00;;
35028;SDS011;35394;54.282;10.070;2023-04-01T03:21:18;0.20;;;0.20;;
35028;SDS011;35394;54.282;10.070;2023-04-01T03:21:50;0.00;;;0.00;;
35028;SDS011;35394;54.282;10.070;2023-04-01T03:22:20;0.10;;;0.10;;
35028;SDS011;35394;54.282;10.070;2023-04-01T03:22:51;0.00;;;0.00;;
35028;SDS011;35394;54.282;10.070;2023-04-01T03:23:22;0.00;;;0.00;;
35028;SDS011;35394;54.282;10.070;2023-04-01T03:23:54;0.00;;;0.00;;
35028;SDS011;35394;54.282;10.070;2023-04-01T03:24:25;0.00;;;0.00;;
35028;SDS011;35394;54.282;10.070;2023-04-01T03:24:55;0.00;;;0.00;;
35028;SDS011;35394;54.282;10.070;2023-04-01T03:25:26;0.00;;;0.00;;
35028;SDS011;35394;54.282;10.070;2023-04-01T03:26:00;0.00;;;0.00;;
35028;SDS011;35394;54.282;10.070;2023-04-01T03:26:31;0.00;;;0.00;;
35028;SDS011;35394;54.282;10.070;2023-04-01T03:27:01;0.00;;;0.00;;
35028;SDS011;35394;54.282;10.070;2023-04-01T03:27:33;0.00;;;0.00;;
35028;SDS011;35394;54.282;10.070;2023-04-01T03:28:05;0.00;;;0.00;;
35028;SDS011;35394;54.282;10.070;2023-04-01T03:28:35;0.00;;;0.00;;
35028;SDS011;35394;54.282;10.070;2023-04-01T03:29:06;0.00;;;0.00;;
35028;SDS011;35394;54.282;10.070;2023-04-01T03:29:37;0.00;;;0.00;;
35028;SDS011;35394;54.282;10.070;2023-04-01T03:30:07;0.00;;;0.00;;
35028;SDS011;35394;54.282;10.070;2023-04-01T03:30:39;0.08;;;0.08;;
35028;SDS011;35394;54.282;10.070;2023-04-01T03:31:10;0.05;;;0.05;;
35028;SDS011;35394;54.282;10.070;2023-04-01T03:31:41;0.03;;;0.03;;
35028;SDS011;35394;54.282;10.070;2023-04-01T03:32:11;0.10;;;0.10;;
35028;SDS011;35394;54.282;10.070;2023-04-01T03:32:42;0.00;;;0.00;;
35028;SDS011;35394;54.282;10.070;2023-04-01T03:33:13;0.00;;;0.00;;
35028;SDS011;35394;54.282;10.070;2023-04-01T03:33:43;0.00;;;0.00;;
35028;SDS011;35394;54.282;10.070;2023-04-01T03:34:14;0.20;;;0.17;;
35028;SDS011;35394;54.282;10.070;2023-04-01T03:34:45;0.00;;;0.00;;
35028;SDS011;35394;54.282;10.070;2023-04-01T03:35:16;0.00;;;0.00;;